createdAt,value
2023-02-06T00:04:58.054Z,4.63
2023-02-06T00:07:25.562Z,5.90
2023-02-06T00:09:52.994Z,5.45
2023-02-06T00:12:20.493Z,6.30
2023-02-06T00:14:48.258Z,6.05
2023-02-06T00:17:15.987Z,6.25
2023-02-06T00:19:47.168Z,5.13
2023-02-06T00:22:17.735Z,5.18
2023-02-06T00:27:18.450Z,7.10
2023-02-06T00:29:48.586Z,5.63
2023-02-06T00:32:16.318Z,5.22
2023-02-06T00:34:44.188Z,5.43
2023-02-06T00:37:11.978Z,4.13
2023-02-06T00:39:39.572Z,6.22
2023-02-06T00:42:07.353Z,5.45
2023-02-06T00:44:35.438Z,4.57
2023-02-06T00:47:02.986Z,5.18
2023-02-06T00:49:30.438Z,6.30
2023-02-06T00:51:58.399Z,5.28
2023-02-06T00:54:25.860Z,6.15
2023-02-06T00:56:53.650Z,6.63
2023-02-06T00:59:21.245Z,4.22
2023-02-06T01:03:35.709Z,4.15
2023-02-06T01:06:06.645Z,4.13
2023-02-06T01:08:34.173Z,6.07
2023-02-06T01:11:01.793Z,6.53
2023-02-06T01:13:29.596Z,5.55
2023-02-06T01:15:57.134Z,4.80
2023-02-06T01:18:24.640Z,6.22
2023-02-06T01:20:52.466Z,5.75
2023-02-06T01:23:20.800Z,6.93
2023-02-06T01:25:48.363Z,5.72
2023-02-06T01:28:20.150Z,5.25
2023-02-06T01:30:47.764Z,4.55
2023-02-06T01:33:16.183Z,3.65
2023-02-06T01:35:45.304Z,4.53
2023-02-06T01:38:12.888Z,5.90
2023-02-06T01:40:40.958Z,5.57
2023-02-06T01:43:17.842Z,5.50
2023-02-06T01:45:47.190Z,4.85
2023-02-06T01:48:17.292Z,5.80
2023-02-06T01:50:47.056Z,5.22
2023-02-06T01:53:17.181Z,4.32
2023-02-06T01:55:47.319Z,5.32
2023-02-06T01:58:17.856Z,3.95
2023-02-06T02:03:15.097Z,4.53
2023-02-06T02:05:47.400Z,4.93
2023-02-06T02:08:21.132Z,5.57
2023-02-06T02:10:48.816Z,4.82
2023-02-06T02:13:16.904Z,4.25
2023-02-06T02:15:46.414Z,4.60
2023-02-06T02:18:15.952Z,4.47
2023-02-06T02:21:02.190Z,4.87
2023-02-06T02:23:48.042Z,4.35
2023-02-06T02:26:37.682Z,4.25
2023-02-06T02:29:23.826Z,4.43
2023-02-06T02:32:00.879Z,4.78
2023-02-06T02:34:49.754Z,5.35
2023-02-06T02:37:27.568Z,4.32
2023-02-06T02:40:00.246Z,4.30
2023-02-06T02:42:34.085Z,4.57
2023-02-06T02:45:07.897Z,4.97
2023-02-06T02:47:42.227Z,4.78
2023-02-06T02:50:09.773Z,4.68
2023-02-06T02:52:37.619Z,4.13
2023-02-06T02:55:23.315Z,5.35
2023-02-06T02:58:01.100Z,4.80
2023-02-06T03:00:30.086Z,4.35
2023-02-06T03:02:59.267Z,6.40
2023-02-06T03:05:28.209Z,4.50
2023-02-06T03:08:00.110Z,4.57
2023-02-06T03:10:34.529Z,4.05
2023-02-06T03:13:06.200Z,5.00
2023-02-06T03:15:42.640Z,5.75
2023-02-06T03:18:12.656Z,5.05
2023-02-06T03:20:44.087Z,4.15
2023-02-06T03:23:19.958Z,3.75
2023-02-06T03:25:48.722Z,4.40
2023-02-06T03:28:23.857Z,4.93
2023-02-06T03:30:54.184Z,6.18
2023-02-06T03:33:23.797Z,4.82
2023-02-06T03:35:51.502Z,4.43
2023-02-06T03:38:19.514Z,4.30
2023-02-06T03:40:48.589Z,5.68
2023-02-06T03:43:18.942Z,4.70
2023-02-06T03:45:49.489Z,4.88
2023-02-06T03:50:45.230Z,4.97
2023-02-06T03:53:15.928Z,5.47
2023-02-06T03:55:44.109Z,4.55
2023-02-06T03:58:16.327Z,4.78
2023-02-06T04:00:45.173Z,4.60
2023-02-06T04:03:16.847Z,5.07
2023-02-06T04:05:47.675Z,3.70
2023-02-06T04:08:15.907Z,4.57
2023-02-06T04:10:45.458Z,4.45
2023-02-06T04:13:15.310Z,4.27
2023-02-06T04:15:42.977Z,3.85
2023-02-06T04:18:10.826Z,3.85
2023-02-06T04:20:41.173Z,4.75
2023-02-06T04:23:10.084Z,3.75
2023-02-06T04:25:37.879Z,4.63
2023-02-06T04:28:06.239Z,3.17
2023-02-06T04:30:33.886Z,4.18
2023-02-06T04:33:04.733Z,3.90
2023-02-06T04:35:33.645Z,3.78
2023-02-06T04:38:01.712Z,4.22
2023-02-06T04:40:29.568Z,14.23
2023-02-06T04:42:57.406Z,10.18
2023-02-06T04:45:25.608Z,7.43
2023-02-06T04:47:53.543Z,5.20
2023-02-06T04:50:21.217Z,4.60
2023-02-06T04:52:49.093Z,4.50
2023-02-06T04:55:16.520Z,5.35
2023-02-06T04:57:46.042Z,4.28
2023-02-06T05:00:15.488Z,5.55
2023-02-06T05:02:44.894Z,5.90
2023-02-06T05:05:12.949Z,5.00
2023-02-06T05:07:44.030Z,3.90
2023-02-06T05:10:11.829Z,4.32
2023-02-06T05:12:39.528Z,5.53
2023-02-06T05:15:07.403Z,5.75
2023-02-06T05:17:35.022Z,6.03
2023-02-06T05:20:02.797Z,8.43
2023-02-06T05:22:30.305Z,8.68
2023-02-06T05:24:58.048Z,7.30
2023-02-06T05:27:25.878Z,6.95
2023-02-06T05:29:53.674Z,6.63
2023-02-06T05:32:21.411Z,5.50
2023-02-06T05:34:49.236Z,6.15
2023-02-06T05:37:16.942Z,5.03
2023-02-06T05:39:45.646Z,5.65
2023-02-06T05:42:13.615Z,4.90
2023-02-06T05:44:41.498Z,5.57
2023-02-06T05:47:08.954Z,4.93
2023-02-06T05:49:36.584Z,5.15
2023-02-06T05:52:04.471Z,5.55
2023-02-06T05:54:32.084Z,5.95
2023-02-06T05:57:00.016Z,5.88
2023-02-06T05:59:27.619Z,6.63
2023-02-06T06:01:55.078Z,6.50
2023-02-06T06:04:23.094Z,6.47
2023-02-06T06:06:50.799Z,7.05
2023-02-06T06:09:18.552Z,6.65
2023-02-06T06:11:51.536Z,5.90
2023-02-06T06:14:19.010Z,5.68
2023-02-06T06:16:47.048Z,5.38
2023-02-06T06:19:17.404Z,4.78
2023-02-06T06:21:45.415Z,6.07
2023-02-06T06:24:12.975Z,6.63
2023-02-06T06:26:42.171Z,5.65
2023-02-06T06:29:09.752Z,6.63
2023-02-06T06:31:37.353Z,7.18
2023-02-06T06:34:05.157Z,9.32
2023-02-06T06:36:32.830Z,6.95
2023-02-06T06:39:00.621Z,7.00
2023-02-06T06:41:28.668Z,6.20
2023-02-06T06:43:56.919Z,6.28
2023-02-06T06:46:24.741Z,6.63
2023-02-06T06:48:52.502Z,6.35
2023-02-06T06:51:20.047Z,6.30
2023-02-06T06:53:47.755Z,7.72
2023-02-06T06:56:18.893Z,7.72
2023-02-06T06:58:46.564Z,7.60
2023-02-06T07:01:15.279Z,6.22
2023-02-06T07:03:47.454Z,5.00
2023-02-06T07:06:17.312Z,5.43
2023-02-06T07:08:45.335Z,4.38
2023-02-06T07:11:18.343Z,5.28
2023-02-06T07:13:49.627Z,4.10
2023-02-06T07:16:17.452Z,4.32
2023-02-06T07:18:45.774Z,4.10
2023-02-06T07:21:15.901Z,4.28
2023-02-06T07:23:49.771Z,3.75
2023-02-06T07:26:17.355Z,3.78
2023-02-06T07:28:45.254Z,4.30
2023-02-06T07:31:12.873Z,3.55
2023-02-06T07:33:41.611Z,3.95
2023-02-06T07:36:13.983Z,4.45
2023-02-06T07:38:41.865Z,4.38
2023-02-06T07:41:11.163Z,5.78
2023-02-06T07:43:40.495Z,4.40
2023-02-06T07:46:11.216Z,4.55
2023-02-06T07:48:39.377Z,4.43
2023-02-06T07:51:08.879Z,5.20
2023-02-06T07:53:39.135Z,4.22
2023-02-06T07:56:11.333Z,4.15
2023-02-06T07:58:39.452Z,5.53
2023-02-06T08:01:10.858Z,5.63
2023-02-06T08:03:38.635Z,4.35
2023-02-06T08:06:11.537Z,5.47
2023-02-06T08:08:38.948Z,6.28
2023-02-06T08:11:11.183Z,5.03
2023-02-06T08:13:39.021Z,5.93
2023-02-06T08:16:09.753Z,5.80
2023-02-06T08:18:37.841Z,5.88
2023-02-06T08:21:15.318Z,5.63
2023-02-06T08:23:44.252Z,4.95
2023-02-06T08:26:15.888Z,5.00
2023-02-06T08:28:45.324Z,5.55
2023-02-06T08:31:16.495Z,5.43
2023-02-06T08:33:45.590Z,4.85
2023-02-06T08:36:14.208Z,5.53
2023-02-06T08:38:42.060Z,6.05
2023-02-06T08:41:22.341Z,5.32
2023-02-06T08:43:50.799Z,4.70
2023-02-06T08:46:21.378Z,5.20
2023-02-06T08:48:49.301Z,4.97
2023-02-06T08:51:17.084Z,6.15
2023-02-06T08:53:47.318Z,5.03
2023-02-06T08:56:15.487Z,4.82
2023-02-06T08:58:43.687Z,4.97
2023-02-06T09:01:16.036Z,5.15
2023-02-06T09:03:45.341Z,6.20
2023-02-06T09:06:14.030Z,5.15
2023-02-06T09:08:42.583Z,6.68
2023-02-06T09:11:11.822Z,6.93
2023-02-06T09:13:40.212Z,7.10
2023-02-06T09:16:08.345Z,6.60
2023-02-06T09:18:37.336Z,6.00
2023-02-06T09:21:11.466Z,5.25
2023-02-06T09:23:40.182Z,6.07
2023-02-06T09:26:10.647Z,6.45
2023-02-06T09:28:38.717Z,5.25
2023-02-06T09:31:08.190Z,5.60
2023-02-06T09:33:36.125Z,6.15
2023-02-06T09:36:03.704Z,6.43
2023-02-06T09:38:31.930Z,5.55
2023-02-06T09:41:05.311Z,6.55
2023-02-06T09:43:34.631Z,5.60
2023-02-06T09:46:03.633Z,7.15
2023-02-06T09:48:33.545Z,7.13
2023-02-06T09:51:20.413Z,6.80
2023-02-06T09:53:57.609Z,6.68
2023-02-06T09:56:58.100Z,6.07
2023-02-06T09:59:58.149Z,6.03
2023-02-06T10:02:55.309Z,6.07
2023-02-06T10:05:38.545Z,6.53
2023-02-06T10:08:09.314Z,7.05
2023-02-06T10:10:43.006Z,6.22
2023-02-06T10:13:22.243Z,6.40
2023-02-06T10:15:52.666Z,6.85
2023-02-06T10:21:02.502Z,5.68
2023-02-06T10:23:34.781Z,4.88
2023-02-06T10:26:12.557Z,5.22
2023-02-06T10:28:41.045Z,4.90
2023-02-06T10:31:29.026Z,3.90
2023-02-06T10:34:09.049Z,4.00
2023-02-06T10:36:44.223Z,3.65
2023-02-06T10:39:32.293Z,4.32
2023-02-06T10:42:01.110Z,4.47
2023-02-06T10:44:39.901Z,4.10
2023-02-06T10:47:16.580Z,4.57
2023-02-06T10:49:53.238Z,4.10
2023-02-06T10:52:20.925Z,5.15
2023-02-06T10:54:55.711Z,4.20
2023-02-06T10:57:25.652Z,4.18
2023-02-06T10:59:54.436Z,4.13
2023-02-06T11:02:22.686Z,4.38
2023-02-06T11:04:59.521Z,3.55
2023-02-06T11:07:32.326Z,4.00
2023-02-06T11:10:00.619Z,3.75
2023-02-06T11:12:51.498Z,4.15
2023-02-06T11:15:24.782Z,3.92
2023-02-06T11:17:54.330Z,3.97
2023-02-06T11:20:24.394Z,3.92
2023-02-06T11:22:53.300Z,3.25
2023-02-06T11:25:23.487Z,3.95
2023-02-06T11:27:51.443Z,4.95
2023-02-06T11:30:26.003Z,3.03
2023-02-06T11:33:04.381Z,3.83
2023-02-06T11:35:39.384Z,3.63
2023-02-06T11:38:07.572Z,3.92
2023-02-06T11:40:35.583Z,3.35
2023-02-06T11:43:23.343Z,4.00
2023-02-06T11:45:53.873Z,3.45
2023-02-06T11:50:54.639Z,3.15
2023-02-06T11:53:22.346Z,4.20
2023-02-06T11:55:59.223Z,2.95
2023-02-06T11:58:27.691Z,2.65
2023-02-06T12:00:57.397Z,2.95
2023-02-06T12:03:29.152Z,3.10
2023-02-06T12:06:00.351Z,3.30
2023-02-06T12:08:37.510Z,4.43
2023-02-06T12:11:06.676Z,2.67
2023-02-06T12:13:38.641Z,3.15
2023-02-06T12:16:08.016Z,3.03
2023-02-06T12:18:40.073Z,2.97
2023-02-06T12:21:27.801Z,3.13
2023-02-06T12:24:03.676Z,4.30
2023-02-06T12:26:32.541Z,3.17
2023-02-06T12:29:10.154Z,3.10
2023-02-06T12:31:46.056Z,2.90
2023-02-06T12:34:19.967Z,2.88
2023-02-06T12:36:54.924Z,3.05
2023-02-06T12:39:24.216Z,3.05
2023-02-06T12:42:18.397Z,4.15
2023-02-06T12:44:50.335Z,3.05
2023-02-06T12:47:25.057Z,3.15
2023-02-06T12:50:05.261Z,3.13
2023-02-06T12:52:46.187Z,2.78
2023-02-06T12:55:22.996Z,3.42
2023-02-06T12:57:51.504Z,2.72
2023-02-06T13:00:18.977Z,3.00
2023-02-06T13:03:03.166Z,2.80
2023-02-06T13:05:34.893Z,3.63
2023-02-06T13:08:18.270Z,2.75
2023-02-06T13:10:52.815Z,3.38
2023-02-06T13:13:46.688Z,3.53
2023-02-06T13:16:17.455Z,2.90
2023-02-06T13:18:50.729Z,3.60
2023-02-06T13:21:21.123Z,3.50
2023-02-06T13:24:00.184Z,3.45
2023-02-06T13:26:46.557Z,3.28
2023-02-06T13:29:54.216Z,2.95
2023-02-06T13:32:25.516Z,3.47
2023-02-06T13:34:57.406Z,3.42
2023-02-06T13:37:36.774Z,3.22
2023-02-06T13:40:23.373Z,3.40
2023-02-06T13:43:17.222Z,3.03
2023-02-06T13:45:48.300Z,3.28
2023-02-06T13:48:21.973Z,4.00
2023-02-06T13:50:57.913Z,3.00
2023-02-06T13:53:52.898Z,3.47
2023-02-06T13:56:33.652Z,3.47
2023-02-06T13:59:06.628Z,3.47
2023-02-06T14:01:35.087Z,3.47
2023-02-06T14:04:03.001Z,2.60
2023-02-06T14:06:38.128Z,3.28
2023-02-06T14:09:08.972Z,2.78
2023-02-06T14:12:14.617Z,2.72
2023-02-06T14:14:55.698Z,2.65
2023-02-06T14:17:34.609Z,3.65
2023-02-06T14:20:21.317Z,2.70
2023-02-06T14:23:03.250Z,3.13
2023-02-06T14:25:56.957Z,2.50
2023-02-06T14:28:31.374Z,2.53
2023-02-06T14:31:06.833Z,2.58
2023-02-06T14:33:34.389Z,3.38
2023-02-06T14:36:02.007Z,2.60
2023-02-06T14:38:32.505Z,2.40
2023-02-06T14:43:31.514Z,2.47
2023-02-06T14:46:07.407Z,2.60
2023-02-06T14:48:35.875Z,2.85
2023-02-06T14:51:03.474Z,2.47
2023-02-06T14:53:38.745Z,2.50
2023-02-06T14:56:17.949Z,2.80
2023-02-06T14:58:49.028Z,3.17
2023-02-06T15:01:25.634Z,2.42
2023-02-06T15:03:54.764Z,2.63
2023-02-06T15:06:28.654Z,2.22
2023-02-06T15:08:59.342Z,2.38
2023-02-06T15:11:32.715Z,2.72
2023-02-06T15:14:04.646Z,2.35
2023-02-06T15:16:45.786Z,2.70
2023-02-06T15:19:17.682Z,3.03
2023-02-06T15:21:48.844Z,2.58
2023-02-06T15:24:23.936Z,2.22
2023-02-06T15:27:12.764Z,2.55
2023-02-06T15:29:41.563Z,2.97
2023-02-06T15:32:17.973Z,2.67
2023-02-06T15:34:47.008Z,2.42
2023-02-06T15:37:22.312Z,2.38
2023-02-06T15:39:50.227Z,2.63
2023-02-06T15:42:19.077Z,2.35
2023-02-06T15:44:47.357Z,2.97
2023-02-06T15:47:16.972Z,2.60
2023-02-06T15:49:46.811Z,2.20
2023-02-06T15:52:15.908Z,2.58
2023-02-06T15:54:45.374Z,2.40
2023-02-06T15:57:16.740Z,3.10
2023-02-06T15:59:45.627Z,2.13
2023-02-06T16:02:30.450Z,3.72
2023-02-06T16:04:57.982Z,2.95
2023-02-06T16:07:27.612Z,2.58
2023-02-06T16:09:57.774Z,2.42
2023-02-06T16:12:25.679Z,3.42
2023-02-06T16:14:56.348Z,2.75
2023-02-06T16:17:33.256Z,2.47
2023-02-06T16:20:03.140Z,2.05
2023-02-06T16:22:32.424Z,2.45
2023-02-06T16:25:19.401Z,2.78
2023-02-06T16:27:47.457Z,2.60
2023-02-06T16:30:23.611Z,2.67
2023-02-06T16:32:55.301Z,2.30
2023-02-06T16:35:23.539Z,2.58
2023-02-06T16:37:51.667Z,3.40
2023-02-06T16:40:19.471Z,2.60
2023-02-06T16:42:50.532Z,2.03
2023-02-06T16:45:22.767Z,2.65
2023-02-06T16:47:50.952Z,2.35
2023-02-06T16:50:19.052Z,3.17
2023-02-06T16:52:54.241Z,2.70
2023-02-06T16:55:26.533Z,2.85
2023-02-06T16:57:55.408Z,2.53
2023-02-06T17:00:25.143Z,1.92
2023-02-06T17:02:53.875Z,1.92
2023-02-06T17:05:23.751Z,1.90
2023-02-06T17:07:51.519Z,1.60
2023-02-06T17:10:20.150Z,1.73
2023-02-06T17:12:49.419Z,2.00
2023-02-06T17:15:17.847Z,2.70
2023-02-06T17:17:47.156Z,2.05
2023-02-06T17:20:24.553Z,1.70
2023-02-06T17:22:52.144Z,1.70
2023-02-06T17:25:19.641Z,1.92
2023-02-06T17:27:47.318Z,2.65
2023-02-06T17:30:18.486Z,1.92
2023-02-06T17:32:47.009Z,2.30
2023-02-06T17:35:15.146Z,1.88
2023-02-06T17:37:42.755Z,2.42
2023-02-06T17:40:13.241Z,1.92
2023-02-06T17:42:41.719Z,2.03
2023-02-06T17:45:11.441Z,2.53
2023-02-06T17:47:38.963Z,2.50
2023-02-06T17:50:06.634Z,3.17
2023-02-06T17:52:34.148Z,3.35
2023-02-06T17:55:06.462Z,4.15
2023-02-06T17:57:36.141Z,4.05
2023-02-06T18:00:08.139Z,4.65
2023-02-06T18:02:37.320Z,3.35
2023-02-06T18:05:05.690Z,4.28
2023-02-06T18:07:35.818Z,3.40
2023-02-06T18:10:04.110Z,3.15
2023-02-06T18:12:32.045Z,3.20
2023-02-06T18:14:59.856Z,3.65
2023-02-06T18:17:27.560Z,3.58
2023-02-06T18:19:55.497Z,4.35
2023-02-06T18:22:23.040Z,4.50
2023-02-06T18:24:50.944Z,3.08
2023-02-06T18:27:32.998Z,2.78
2023-02-06T18:30:04.631Z,2.97
2023-02-06T18:32:34.400Z,3.92
2023-02-06T18:35:02.516Z,3.70
2023-02-06T18:37:33.500Z,3.00
2023-02-06T18:40:04.516Z,3.95
2023-02-06T18:42:54.733Z,3.90
2023-02-06T18:45:23.013Z,3.08
2023-02-06T18:47:54.054Z,3.28
2023-02-06T18:50:22.207Z,3.65
2023-02-06T18:52:50.186Z,2.63
2023-02-06T18:55:18.789Z,2.60
2023-02-06T18:57:47.974Z,2.53
2023-02-06T19:00:19.680Z,2.25
2023-02-06T19:02:47.437Z,3.15
2023-02-06T19:05:15.875Z,2.95
2023-02-06T19:07:46.746Z,3.22
2023-02-06T19:10:16.369Z,2.83
2023-02-06T19:12:45.362Z,2.78
2023-02-06T19:15:14.038Z,2.30
2023-02-06T19:17:42.197Z,2.42
2023-02-06T19:20:10.900Z,2.53
2023-02-06T19:22:42.381Z,2.90
2023-02-06T19:25:14.676Z,2.55
2023-02-06T19:27:42.730Z,2.42
2023-02-06T19:30:11.083Z,2.55
2023-02-06T19:32:38.911Z,3.40
2023-02-06T19:35:06.738Z,5.00
2023-02-06T19:37:34.398Z,5.20
2023-02-06T19:40:02.140Z,3.22
2023-02-06T19:42:30.195Z,4.32
2023-02-06T19:44:57.768Z,4.15
2023-02-06T19:47:29.894Z,3.72
2023-02-06T19:49:57.700Z,3.55
2023-02-06T19:52:25.289Z,4.93
2023-02-06T19:54:54.547Z,3.78
2023-02-06T19:57:22.394Z,4.00
2023-02-06T19:59:49.910Z,4.18
2023-02-06T20:02:17.762Z,3.72
2023-02-06T20:04:46.445Z,4.28
2023-02-06T20:07:17.657Z,4.70
2023-02-06T20:09:46.262Z,3.22
2023-02-06T20:12:17.076Z,3.60
2023-02-06T20:14:45.972Z,3.65
2023-02-06T20:17:17.552Z,3.60
2023-02-06T20:19:45.228Z,4.05
2023-02-06T20:22:12.837Z,3.63
2023-02-06T20:24:40.818Z,2.75
2023-02-06T20:27:09.265Z,3.17
2023-02-06T20:29:38.624Z,3.65
2023-02-06T20:32:07.400Z,3.15
2023-02-06T20:34:35.935Z,3.30
2023-02-06T20:37:04.080Z,3.15
2023-02-06T20:39:32.116Z,3.90
2023-02-06T20:41:59.798Z,3.95
2023-02-06T20:44:27.464Z,3.60
2023-02-06T20:46:55.296Z,4.05
2023-02-06T20:49:24.017Z,4.20
2023-02-06T20:51:52.110Z,4.43
2023-02-06T20:54:20.973Z,4.57
2023-02-06T20:56:48.973Z,4.20
2023-02-06T20:59:17.732Z,4.78
2023-02-06T21:01:48.226Z,4.72
2023-02-06T21:06:43.801Z,5.10
2023-02-06T21:09:12.504Z,4.97
2023-02-06T21:11:41.595Z,5.00
2023-02-06T21:14:09.101Z,5.68
2023-02-06T21:16:40.696Z,6.00
2023-02-06T21:19:09.378Z,6.82
2023-02-06T21:21:37.317Z,5.45
2023-02-06T21:24:05.568Z,4.97
2023-02-06T21:26:33.553Z,4.82
2023-02-06T21:29:02.608Z,3.80
2023-02-06T21:31:38.306Z,3.83
2023-02-06T21:34:09.857Z,4.90
2023-02-06T21:36:38.926Z,4.70
2023-02-06T21:39:07.153Z,5.47
2023-02-06T21:41:35.004Z,5.30
2023-02-06T21:44:02.781Z,5.93
2023-02-06T21:46:31.147Z,5.78
2023-02-06T21:48:59.913Z,6.75
2023-02-06T21:51:28.118Z,5.80
2023-02-06T21:53:56.799Z,7.15
2023-02-06T21:56:26.603Z,4.88
2023-02-06T21:58:54.520Z,4.70
2023-02-06T22:01:29.677Z,4.55
2023-02-06T22:03:58.192Z,5.57
2023-02-06T22:06:26.315Z,4.60
2023-02-06T22:08:55.884Z,4.90
2023-02-06T22:11:23.711Z,6.57
2023-02-06T22:13:51.933Z,4.90
2023-02-06T22:16:21.075Z,4.95
2023-02-06T22:18:49.086Z,5.45
2023-02-06T22:21:20.023Z,4.80
2023-02-06T22:23:48.233Z,4.88
2023-02-06T22:26:17.150Z,4.70
2023-02-06T22:28:45.124Z,4.43
2023-02-06T22:31:12.821Z,4.80
2023-02-06T22:33:41.405Z,4.65
2023-02-06T22:36:20.776Z,5.05
2023-02-06T22:38:49.322Z,5.50
2023-02-06T22:41:18.043Z,5.25
2023-02-06T22:43:46.757Z,5.60
2023-02-06T22:46:22.227Z,5.28
2023-02-06T22:48:50.116Z,4.53
2023-02-06T22:51:17.737Z,5.13
2023-02-06T22:53:45.957Z,5.47
2023-02-06T22:56:27.872Z,5.28
2023-02-06T22:58:57.261Z,5.65
2023-02-06T23:01:26.230Z,5.45
2023-02-06T23:03:54.721Z,5.50
2023-02-06T23:06:22.588Z,6.18
2023-02-06T23:08:50.417Z,6.53
2023-02-06T23:11:18.187Z,5.20
2023-02-06T23:13:46.285Z,5.47
2023-02-06T23:16:14.032Z,5.80
2023-02-06T23:18:41.456Z,6.00
2023-02-06T23:21:13.581Z,5.85
2023-02-06T23:23:41.988Z,5.10
2023-02-06T23:26:11.177Z,6.82
2023-02-06T23:28:40.521Z,5.53
2023-02-06T23:31:08.547Z,6.45
2023-02-06T23:33:36.190Z,5.68
2023-02-06T23:36:06.338Z,5.72
2023-02-06T23:38:37.080Z,5.90
2023-02-06T23:41:25.430Z,6.43
2023-02-06T23:43:54.157Z,6.82
2023-02-06T23:46:25.598Z,6.63
2023-02-06T23:48:53.877Z,6.70
2023-02-06T23:51:21.862Z,7.25
2023-02-06T23:53:50.128Z,6.10
2023-02-06T23:56:19.566Z,7.05
2023-02-06T23:58:47.095Z,6.30
